Time;durP1;ratioP1;P1;durP2;ratioP2;P2;SDS_P1;SDS_P2;PMS_P1;PMS_P2;Temp;Humidity;BMP_temperature;BMP_pressure;BME280_temperature;BME280_humidity;BME280_pressure;Samples;Min_cycle;Max_cycle;Signal;HPM_P1;HPM_P2
2022/07/17 00:00:47;;;;;;;17.47;10.83;;;21.50;27.60;;;;;;5022365;28;20192;-72
2022/07/17 00:03:14;;;;;;;12.90;9.60;;;21.40;28.20;;;;;;5023367;28;20179;-72
2022/07/17 00:05:40;;;;;;;19.90;9.60;;;21.30;28.30;;;;;;5020671;28;20484;-71
2022/07/17 00:08:07;;;;;;;12.80;9.07;;;21.20;27.90;;;;;;5025329;28;20432;-72
2022/07/17 00:10:33;;;;;;;12.77;9.40;;;21.20;27.90;;;;;;5026921;28;20914;-72
2022/07/17 00:12:59;;;;;;;12.10;9.03;;;21.10;28.20;;;;;;5026560;28;20427;-72
2022/07/17 00:15:24;;;;;;;17.00;9.97;;;21.00;28.80;;;;;;5021652;28;20431;-71
2022/07/17 00:17:50;;;;;;;17.20;9.30;;;21.00;28.70;;;;;;5021709;28;20183;-72
2022/07/17 00:20:16;;;;;;;12.97;8.80;;;21.00;28.40;;;;;;5029196;28;20207;-72
2022/07/17 00:22:42;;;;;;;14.53;8.33;;;20.90;28.10;;;;;;5020975;28;20255;-72
2022/07/17 00:25:09;;;;;;;15.40;8.43;;;21.00;28.20;;;;;;5027266;28;20708;-72
2022/07/17 00:27:39;;;;;;;12.47;8.57;;;21.00;28.50;;;;;;5024833;28;20794;-71
2022/07/17 00:30:05;;;;;;;9.93;7.80;;;20.80;28.50;;;;;;5027954;28;20427;-72
2022/07/17 00:32:31;;;;;;;10.50;7.50;;;20.80;28.50;;;;;;5028959;28;20411;-72
2022/07/17 00:34:57;;;;;;;12.40;7.90;;;20.80;28.40;;;;;;5026954;28;20509;-71
2022/07/17 00:37:22;;;;;;;11.43;7.87;;;20.80;28.30;;;;;;5028947;28;20678;-71
2022/07/17 00:39:48;;;;;;;22.87;8.73;;;20.60;28.60;;;;;;5030272;28;20520;-71
2022/07/17 00:42:15;;;;;;;13.90;9.83;;;20.70;28.90;;;;;;5025208;28;20188;-72
2022/07/17 00:44:42;;;;;;;13.57;9.87;;;20.60;29.30;;;;;;5031728;28;20258;-72
2022/07/17 00:47:14;;;;;;;14.70;8.70;;;20.60;29.00;;;;;;5022727;28;20453;-72
2022/07/17 00:49:40;;;;;;;13.87;8.60;;;20.60;28.90;;;;;;5029278;28;20432;-72
2022/07/17 00:52:07;;;;;;;11.97;7.90;;;20.70;28.50;;;;;;5030177;28;20435;-72
2022/07/17 00:54:39;;;;;;;19.90;9.40;;;20.80;28.60;;;;;;5028027;28;20956;-70
2022/07/17 00:57:07;;;;;;;13.63;9.47;;;20.70;28.60;;;;;;5030430;28;20545;-72
2022/07/17 00:59:34;;;;;;;12.30;8.90;;;20.60;28.40;;;;;;5025685;28;20434;-71
2022/07/17 01:02:02;;;;;;;14.53;8.77;;;20.40;28.90;;;;;;5023530;28;20820;-72
2022/07/17 01:04:28;;;;;;;17.97;8.30;;;20.40;29.10;;;;;;5021065;28;20884;-73
2022/07/17 01:06:54;;;;;;;12.77;8.43;;;20.60;28.90;;;;;;5012314;28;20466;-72
2022/07/17 01:09:19;;;;;;;14.93;9.00;;;20.50;29.40;;;;;;5020112;28;20279;-71
2022/07/17 01:11:45;;;;;;;18.23;9.37;;;20.40;29.00;;;;;;5016913;28;20535;-71
2022/07/17 01:14:11;;;;;;;11.03;8.07;;;20.50;29.70;;;;;;5016921;28;20310;-72
2022/07/17 01:16:37;;;;;;;10.40;7.43;;;20.30;29.00;;;;;;5020927;28;20216;-73
2022/07/17 01:19:03;;;;;;;11.63;8.03;;;20.40;29.00;;;;;;5016672;28;20445;-73
2022/07/17 01:21:43;;;;;;;14.70;8.00;;;20.30;29.10;;;;;;5022141;28;20556;-72
2022/07/17 01:24:09;;;;;;;13.70;7.73;;;20.30;29.20;;;;;;5022190;28;20467;-72
2022/07/17 01:26:34;;;;;;;12.70;8.23;;;20.40;29.40;;;;;;5017835;28;20541;-72
2022/07/17 01:29:00;;;;;;;11.60;7.30;;;20.40;29.80;;;;;;5018817;28;20433;-72
2022/07/17 01:31:26;;;;;;;10.70;8.03;;;20.20;29.40;;;;;;5022074;28;20190;-72
2022/07/17 01:33:52;;;;;;;10.60;7.70;;;20.40;29.00;;;;;;5017843;28;20259;-71
2022/07/17 01:36:26;;;;;;;15.40;8.40;;;20.30;29.40;;;;;;5016681;28;20196;-72
2022/07/17 01:38:52;;;;;;;16.70;9.03;;;20.40;30.30;;;;;;5021845;28;20437;-71
2022/07/17 01:41:18;;;;;;;13.80;7.60;;;20.10;30.60;;;;;;5024362;28;20425;-71
2022/07/17 01:43:43;;;;;;;11.00;8.10;;;20.30;29.10;;;;;;5022950;28;20434;-71
2022/07/17 01:46:09;;;;;;;10.63;8.13;;;20.10;30.40;;;;;;5024974;28;20214;-72
2022/07/17 01:48:35;;;;;;;10.83;8.70;;;20.10;30.60;;;;;;5020327;28;20666;-71
2022/07/17 01:51:02;;;;;;;16.13;8.27;;;19.90;30.10;;;;;;5023227;28;20235;-71
2022/07/17 01:53:28;;;;;;;11.87;8.80;;;19.90;30.00;;;;;;5017965;28;20858;-72
2022/07/17 01:55:53;;;;;;;12.93;8.23;;;19.90;30.30;;;;;;5017622;28;20462;-72
2022/07/17 01:58:19;;;;;;;11.30;8.40;;;19.70;30.10;;;;;;5022009;28;20199;-72
2022/07/17 02:00:44;;;;;;;10.40;7.37;;;19.80;30.00;;;;;;5020455;28;20641;-71
2022/07/17 02:03:10;;;;;;;9.57;6.80;;;19.70;30.20;;;;;;5022684;28;20186;-71
2022/07/17 02:05:36;;;;;;;15.43;7.30;;;19.50;29.50;;;;;;5016098;28;20284;-71
2022/07/17 02:08:02;;;;;;;10.87;7.63;;;19.20;30.60;;;;;;5014758;28;20259;-71
2022/07/17 02:10:29;;;;;;;15.20;9.03;;;19.40;30.60;;;;;;5024671;28;20533;-72
2022/07/17 02:12:54;;;;;;;14.03;9.20;;;19.40;30.70;;;;;;5021002;28;20194;-71
2022/07/17 02:15:20;;;;;;;25.80;10.57;;;19.50;31.20;;;;;;5024962;28;20430;-72
2022/07/17 02:17:45;;;;;;;12.27;9.03;;;19.80;29.60;;;;;;5019767;28;20711;-72
2022/07/17 02:20:12;;;;;;;13.60;9.10;;;19.60;30.70;;;;;;5026284;28;20180;-71
2022/07/17 02:22:38;;;;;;;21.90;10.40;;;19.60;31.30;;;;;;5025516;28;20183;-72
2022/07/17 02:25:06;;;;;;;14.10;9.70;;;19.50;31.20;;;;;;5021483;28;20474;-72
2022/07/17 02:27:32;;;;;;;15.23;10.43;;;19.50;30.80;;;;;;5026960;28;20439;-72
2022/07/17 02:29:57;;;;;;;14.57;9.77;;;19.50;31.30;;;;;;5018961;28;20427;-71
2022/07/17 02:32:23;;;;;;;12.87;9.63;;;19.40;31.20;;;;;;5024103;28;20450;-71
2022/07/17 02:34:49;;;;;;;19.60;10.67;;;19.40;31.80;;;;;;5025482;28;20684;-71
2022/07/17 02:37:15;;;;;;;14.27;10.30;;;19.40;32.10;;;;;;5023467;28;20579;-72
2022/07/17 02:39:52;;;;;;;12.33;9.47;;;19.40;32.20;;;;;;5028096;28;20196;-72
2022/07/17 02:42:22;;;;;;;14.77;10.40;;;19.30;31.80;;;;;;5026537;28;20427;-72
2022/07/17 02:44:48;;;;;;;12.23;9.70;;;19.20;32.50;;;;;;5026046;28;20467;-71
2022/07/17 02:47:24;;;;;;;15.43;9.90;;;19.20;32.00;;;;;;5020013;28;20441;-71
2022/07/17 02:49:51;;;;;;;12.87;9.40;;;19.10;32.50;;;;;;5025867;28;20443;-72
2022/07/17 02:52:18;;;;;;;18.13;9.87;;;19.00;31.90;;;;;;5020736;28;20507;-72
2022/07/17 02:54:44;;;;;;;14.67;9.20;;;19.10;32.50;;;;;;5009482;28;20435;-70
2022/07/17 02:57:10;;;;;;;15.40;9.80;;;19.30;31.80;;;;;;5027835;28;20461;-71
2022/07/17 02:59:35;;;;;;;13.07;9.13;;;19.20;32.70;;;;;;5027708;28;20434;-71
2022/07/17 03:02:01;;;;;;;11.43;8.70;;;19.00;32.20;;;;;;5028694;28;20185;-71
2022/07/17 03:04:27;;;;;;;13.00;8.73;;;19.20;32.30;;;;;;5029540;28;20207;-72
2022/07/17 03:06:52;;;;;;;13.90;9.13;;;19.10;32.20;;;;;;5021440;28;20675;-72
2022/07/17 03:09:18;;;;;;;15.73;8.80;;;19.10;32.40;;;;;;5010747;28;20190;-72
2022/07/17 03:11:43;;;;;;;18.20;9.00;;;19.00;32.80;;;;;;5020610;28;20262;-71
2022/07/17 03:14:09;;;;;;;13.37;8.80;;;19.10;32.10;;;;;;5022235;28;20709;-72
2022/07/17 03:16:35;;;;;;;12.23;8.97;;;19.20;31.70;;;;;;5023024;28;20211;-71
2022/07/17 03:19:01;;;;;;;20.07;8.60;;;19.40;31.20;;;;;;5020628;28;20450;-71
2022/07/17 03:21:26;;;;;;;12.87;9.50;;;19.40;31.40;;;;;;5025158;28;20613;-71
2022/07/17 03:23:52;;;;;;;14.07;8.37;;;19.30;31.50;;;;;;5020204;28;20570;-72
2022/07/17 03:26:17;;;;;;;13.70;8.73;;;19.00;32.50;;;;;;5022057;28;20205;-72
2022/07/17 03:28:43;;;;;;;12.20;9.20;;;18.80;32.60;;;;;;5030712;28;20610;-71
2022/07/17 03:31:08;;;;;;;13.40;10.70;;;18.70;33.50;;;;;;5021375;28;20257;-71
2022/07/17 03:33:34;;;;;;;13.07;9.50;;;18.70;33.30;;;;;;5017764;28;20636;-71
2022/07/17 03:36:00;;;;;;;15.17;9.60;;;18.70;33.50;;;;;;5024424;28;20208;-72
2022/07/17 03:38:26;;;;;;;12.63;9.70;;;18.70;33.40;;;;;;5023591;28;20508;-71
2022/07/17 03:40:51;;;;;;;13.10;10.03;;;18.60;33.60;;;;;;5017602;28;20271;-71
2022/07/17 03:43:17;;;;;;;12.27;9.20;;;18.60;33.80;;;;;;5014824;28;20182;-71
2022/07/17 03:45:42;;;;;;;13.53;9.03;;;18.60;33.40;;;;;;5023918;28;20231;-72
2022/07/17 03:48:08;;;;;;;13.80;9.67;;;18.60;33.90;;;;;;5022693;28;20739;-72
2022/07/17 03:50:34;;;;;;;16.37;9.90;;;18.50;33.90;;;;;;5023116;28;20689;-71
2022/07/17 03:52:59;;;;;;;16.70;9.23;;;18.40;34.10;;;;;;5028298;28;20838;-71
2022/07/17 03:55:25;;;;;;;15.13;9.23;;;18.30;33.90;;;;;;5025190;28;20192;-71
2022/07/17 03:57:51;;;;;;;10.93;8.73;;;18.50;33.60;;;;;;5023675;28;20315;-72
2022/07/17 04:00:17;;;;;;;10.20;8.10;;;18.60;33.60;;;;;;5025432;28;20204;-72
2022/07/17 04:02:43;;;;;;;13.17;8.40;;;18.50;33.60;;;;;;5018301;28;20435;-70
2022/07/17 04:05:09;;;;;;;12.47;8.17;;;18.60;33.80;;;;;;5015579;28;20483;-72
2022/07/17 04:07:39;;;;;;;11.97;8.30;;;18.40;34.10;;;;;;5029123;28;20216;-71
2022/07/17 04:10:06;;;;;;;12.30;7.93;;;18.40;34.80;;;;;;5027190;28;20506;-72
2022/07/17 04:12:33;;;;;;;9.17;7.40;;;18.50;34.80;;;;;;5023701;28;20515;-72
2022/07/17 04:14:59;;;;;;;14.50;8.60;;;18.50;34.30;;;;;;5026455;28;20431;-71
2022/07/17 04:17:25;;;;;;;16.93;9.07;;;18.60;34.50;;;;;;5019092;28;20553;-71
2022/07/17 04:19:51;;;;;;;12.10;9.00;;;18.60;34.30;;;;;;5027901;28;20193;-71
2022/07/17 04:22:17;;;;;;;14.17;8.60;;;18.50;34.10;;;;;;5028437;28;20439;-71
2022/07/17 04:24:43;;;;;;;22.47;9.00;;;18.60;33.90;;;;;;5030766;28;20466;-71
2022/07/17 04:27:08;;;;;;;14.50;9.17;;;18.60;34.30;;;;;;5020629;28;20200;-71
2022/07/17 04:29:34;;;;;;;12.37;8.60;;;18.60;33.90;;;;;;5030607;28;20652;-71
2022/07/17 04:31:59;;;;;;;10.63;7.73;;;18.60;33.40;;;;;;5025266;28;20193;-71
2022/07/17 04:34:25;;;;;;;15.20;9.90;;;18.70;33.80;;;;;;5029564;28;20188;-71
2022/07/17 04:36:51;;;;;;;19.03;11.13;;;18.70;32.80;;;;;;5022657;28;20241;-71
2022/07/17 04:39:17;;;;;;;21.37;13.80;;;18.60;33.20;;;;;;5032073;28;20189;-71
2022/07/17 04:41:43;;;;;;;18.30;12.60;;;18.60;33.30;;;;;;5024654;28;20448;-71
2022/07/17 04:44:08;;;;;;;148.40;112.90;;;18.50;33.80;;;;;;5017117;28;20214;-71
2022/07/17 04:46:34;;;;;;;33.63;18.20;;;18.40;33.70;;;;;;5019404;28;20209;-71
2022/07/17 04:48:59;;;;;;;12.80;10.07;;;17.80;34.80;;;;;;5021232;28;20190;-71
2022/07/17 04:51:25;;;;;;;12.47;10.10;;;17.50;36.00;;;;;;5015963;28;20235;-71
2022/07/17 04:53:51;;;;;;;13.73;9.47;;;17.90;35.40;;;;;;5030908;28;20194;-71
2022/07/17 04:56:16;;;;;;;13.00;9.03;;;17.70;35.00;;;;;;5005348;28;20717;-71
2022/07/17 04:58:42;;;;;;;12.60;8.83;;;17.50;35.90;;;;;;5015680;28;20263;-71
2022/07/17 05:01:07;;;;;;;14.67;9.30;;;17.40;36.90;;;;;;5013016;28;20239;-71
2022/07/17 05:03:33;;;;;;;24.30;10.87;;;17.80;36.30;;;;;;5026594;28;20197;-71
2022/07/17 05:05:58;;;;;;;15.17;10.70;;;18.00;34.80;;;;;;5001100;28;20217;-71
2022/07/17 05:08:24;;;;;;;22.40;12.77;;;17.80;35.50;;;;;;5022147;28;20174;-71
2022/07/17 05:10:50;;;;;;;20.70;14.00;;;18.00;35.60;;;;;;5006993;28;20314;-71
2022/07/17 05:13:16;;;;;;;18.93;12.67;;;18.20;34.50;;;;;;5020999;28;20188;-71
2022/07/17 05:15:41;;;;;;;19.13;13.70;;;18.30;34.30;;;;;;5003383;28;20217;-71
2022/07/17 05:18:07;;;;;;;15.93;12.60;;;18.40;34.00;;;;;;5022974;28;20430;-71
2022/07/17 05:20:33;;;;;;;21.77;12.00;;;18.40;34.00;;;;;;5015097;28;20673;-71
2022/07/17 05:22:59;;;;;;;24.83;12.80;;;18.60;34.00;;;;;;5022714;28;20444;-71
2022/07/17 05:25:25;;;;;;;16.80;11.97;;;18.90;32.80;;;;;;5023873;28;20204;-71
2022/07/17 05:27:51;;;;;;;19.27;11.40;;;18.60;34.20;;;;;;5023216;28;20174;-71
2022/07/17 05:30:16;;;;;;;16.67;9.60;;;18.60;33.20;;;;;;5021803;28;20440;-71
2022/07/17 05:32:42;;;;;;;12.67;8.93;;;18.70;32.40;;;;;;5020276;28;20180;-71
2022/07/17 05:35:08;;;;;;;15.00;9.30;;;18.40;33.80;;;;;;5000973;28;20194;-71
2022/07/17 05:37:33;;;;;;;16.73;9.10;;;18.80;33.40;;;;;;5019710;28;20730;-71
2022/07/17 05:39:59;;;;;;;14.37;9.20;;;18.40;33.30;;;;;;5016358;28;20197;-71
2022/07/17 05:42:25;;;;;;;16.87;9.10;;;18.80;33.90;;;;;;5018535;28;20221;-71
2022/07/17 05:44:50;;;;;;;15.40;9.30;;;19.00;32.40;;;;;;5014555;28;20670;-71
2022/07/17 05:47:16;;;;;;;11.77;9.00;;;18.40;33.60;;;;;;5030119;28;20463;-71
2022/07/17 05:49:41;;;;;;;13.73;10.47;;;18.40;33.70;;;;;;5021224;28;20198;-71
2022/07/17 05:52:07;;;;;;;17.07;11.30;;;18.40;34.30;;;;;;5020000;28;20214;-71
2022/07/17 05:54:32;;;;;;;16.77;11.07;;;18.50;33.60;;;;;;5012374;28;20181;-71
2022/07/17 05:56:59;;;;;;;16.30;10.80;;;19.10;34.00;;;;;;5024824;28;20212;-71
2022/07/17 05:59:25;;;;;;;15.53;9.83;;;19.20;31.50;;;;;;5020221;28;20616;-71
2022/07/17 06:01:50;;;;;;;15.73;9.60;;;19.10;32.40;;;;;;5018341;28;20467;-71
2022/07/17 06:04:16;;;;;;;12.33;8.33;;;19.00;32.30;;;;;;5025746;28;20230;-71
2022/07/17 06:06:41;;;;;;;21.83;8.83;;;19.40;33.20;;;;;;5023890;28;20279;-71
2022/07/17 06:09:07;;;;;;;13.60;8.10;;;19.80;31.40;;;;;;5023250;28;20181;-71
2022/07/17 06:11:33;;;;;;;15.40;9.27;;;19.60;30.60;;;;;;5025261;28;20181;-71
2022/07/17 06:13:58;;;;;;;12.40;8.43;;;19.30;31.50;;;;;;5021551;28;20189;-71
2022/07/17 06:16:24;;;;;;;13.37;9.10;;;19.60;32.80;;;;;;5025344;28;20200;-71
2022/07/17 06:18:49;;;;;;;9.87;7.80;;;20.10;32.30;;;;;;5024991;28;20946;-71
2022/07/17 06:21:15;;;;;;;18.73;8.20;;;20.10;29.40;;;;;;5024162;28;20210;-71
2022/07/17 06:23:41;;;;;;;15.70;8.13;;;19.70;31.50;;;;;;5023502;28;20181;-71
2022/07/17 06:26:07;;;;;;;12.63;9.60;;;19.40;30.30;;;;;;5017213;28;20215;-71
2022/07/17 06:28:33;;;;;;;17.80;9.93;;;19.50;30.00;;;;;;5020195;28;20181;-71
2022/07/17 06:30:58;;;;;;;12.10;9.40;;;19.30;31.50;;;;;;5025771;28;20432;-71
2022/07/17 06:33:24;;;;;;;12.87;9.60;;;19.30;31.60;;;;;;5022870;28;20220;-71
2022/07/17 06:35:50;;;;;;;23.43;10.80;;;19.30;32.00;;;;;;5017553;28;20250;-71
2022/07/17 06:38:15;;;;;;;16.13;9.83;;;19.60;31.80;;;;;;5022734;28;20191;-71
2022/07/17 06:40:41;;;;;;;16.23;10.37;;;19.80;30.40;;;;;;5025766;28;20188;-71
2022/07/17 06:43:06;;;;;;;14.07;10.50;;;20.00;30.20;;;;;;5023765;28;20198;-71
2022/07/17 06:45:33;;;;;;;13.83;9.80;;;20.10;29.90;;;;;;5026144;28;20200;-71
2022/07/17 06:47:58;;;;;;;20.43;11.13;;;19.80;30.30;;;;;;5023469;28;20184;-71
2022/07/17 06:50:24;;;;;;;12.20;7.70;;;19.70;30.40;;;;;;5020092;28;20428;-71
2022/07/17 06:52:50;;;;;;;12.37;8.20;;;19.80;30.10;;;;;;5022964;28;20179;-71
2022/07/17 06:55:16;;;;;;;15.90;8.80;;;20.60;29.60;;;;;;5026462;28;20185;-71
2022/07/17 06:57:41;;;;;;;9.33;7.43;;;20.90;28.40;;;;;;5023329;28;20178;-71
2022/07/17 07:00:08;;;;;;;13.50;8.57;;;20.90;29.20;;;;;;5020791;28;20193;-71
2022/07/17 07:02:34;;;;;;;15.93;9.00;;;20.90;28.30;;;;;;5026947;28;20645;-71
2022/07/17 07:05:00;;;;;;;12.73;7.80;;;21.00;28.70;;;;;;5026667;28;20553;-71
2022/07/17 07:07:25;;;;;;;12.50;8.23;;;21.40;28.30;;;;;;5027087;28;20469;-71
2022/07/17 07:09:51;;;;;;;10.63;7.77;;;21.10;28.60;;;;;;5026138;28;20648;-71
2022/07/17 07:12:17;;;;;;;15.40;8.00;;;21.30;28.50;;;;;;5027185;28;20192;-71
2022/07/17 07:14:42;;;;;;;12.83;8.03;;;21.30;28.50;;;;;;5015451;28;20222;-71
2022/07/17 07:17:08;;;;;;;10.47;7.80;;;21.60;28.70;;;;;;5018977;28;20557;-71
2022/07/17 07:19:34;;;;;;;11.30;7.60;;;22.10;28.20;;;;;;5012462;28;20644;-71
2022/07/17 07:21:59;;;;;;;11.10;7.57;;;22.20;27.50;;;;;;5023519;28;20202;-71
2022/07/17 07:24:25;;;;;;;11.00;7.37;;;22.40;27.50;;;;;;5024458;28;20207;-72
2022/07/17 07:26:51;;;;;;;11.40;7.57;;;22.60;27.20;;;;;;5026333;28;20227;-72
2022/07/17 07:29:16;;;;;;;8.90;6.60;;;22.40;26.20;;;;;;5018996;28;20177;-71
2022/07/17 07:31:42;;;;;;;10.63;7.37;;;22.00;27.10;;;;;;5020824;28;20188;-71
2022/07/17 07:34:08;;;;;;;14.83;7.60;;;22.60;27.40;;;;;;5025114;28;20933;-71
2022/07/17 07:36:33;;;;;;;16.23;7.67;;;22.70;28.30;;;;;;5029160;28;20575;-71
2022/07/17 07:38:59;;;;;;;9.50;7.10;;;23.10;27.00;;;;;;5017291;28;20705;-71
2022/07/17 07:41:25;;;;;;;11.93;7.07;;;23.10;25.90;;;;;;5027218;28;20192;-72
2022/07/17 07:43:50;;;;;;;9.80;7.00;;;23.30;25.20;;;;;;5011035;28;20212;-72
2022/07/17 07:46:16;;;;;;;10.83;7.20;;;23.10;26.00;;;;;;5010968;28;20221;-71
2022/07/17 07:48:41;;;;;;;10.73;6.47;;;23.50;24.60;;;;;;5017395;28;20214;-71
2022/07/17 07:51:07;;;;;;;8.53;6.53;;;23.60;25.00;;;;;;5020866;28;20236;-72
2022/07/17 07:53:33;;;;;;;7.00;6.20;;;23.20;24.40;;;;;;5018843;28;20624;-71
2022/07/17 07:55:58;;;;;;;12.33;6.37;;;22.90;25.00;;;;;;5014846;28;20269;-71
2022/07/17 07:58:24;;;;;;;10.63;5.97;;;22.70;25.20;;;;;;5016262;28;20216;-71
2022/07/17 08:00:50;;;;;;;9.10;6.03;;;22.60;25.60;;;;;;5017761;28;20200;-72
2022/07/17 08:03:15;;;;;;;9.60;6.50;;;23.10;25.50;;;;;;5022605;28;20195;-71
2022/07/17 08:05:41;;;;;;;10.87;6.57;;;23.20;24.90;;;;;;5015206;28;20559;-71
2022/07/17 08:08:08;;;;;;;10.17;6.37;;;22.90;26.60;;;;;;5019707;28;20219;-71
2022/07/17 08:10:33;;;;;;;9.13;6.20;;;23.00;26.30;;;;;;5017504;28;20254;-71
2022/07/17 08:12:59;;;;;;;13.70;6.27;;;22.80;25.80;;;;;;5014784;28;20431;-71
2022/07/17 08:15:25;;;;;;;7.03;6.17;;;23.00;26.40;;;;;;5026971;28;20276;-71
2022/07/17 08:17:52;;;;;;;14.33;6.10;;;23.50;23.90;;;;;;5015360;28;20640;-71
2022/07/17 08:20:18;;;;;;;9.60;6.70;;;24.00;24.30;;;;;;5017599;28;21507;-73
2022/07/17 08:22:46;;;;;;;14.73;6.90;;;23.40;25.40;;;;;;5022242;28;20530;-72
2022/07/17 08:25:11;;;;;;;11.33;6.23;;;22.90;27.00;;;;;;5022677;28;20516;-70
2022/07/17 08:27:38;;;;;;;8.80;6.00;;;23.50;26.60;;;;;;5019034;28;20467;-70
2022/07/17 08:30:05;;;;;;;13.70;6.70;;;24.10;25.70;;;;;;5021371;28;20187;-71
2022/07/17 08:32:31;;;;;;;11.73;6.30;;;24.60;25.60;;;;;;5018390;28;20427;-72
2022/07/17 08:34:57;;;;;;;14.37;6.43;;;24.10;25.40;;;;;;5028392;28;20950;-71
2022/07/17 08:37:24;;;;;;;8.90;6.07;;;23.80;25.10;;;;;;5022203;28;20211;-71
2022/07/17 08:39:49;;;;;;;10.50;6.43;;;24.00;25.50;;;;;;5021661;28;20532;-71
2022/07/17 08:42:16;;;;;;;9.30;5.83;;;23.80;25.50;;;;;;5026683;28;20450;-71
2022/07/17 08:44:45;;;;;;;11.47;6.20;;;23.60;26.20;;;;;;5017645;28;20471;-71
2022/07/17 08:47:12;;;;;;;10.20;6.07;;;24.40;25.10;;;;;;5019476;28;20460;-71
2022/07/17 08:49:48;;;;;;;10.63;6.07;;;24.20;25.30;;;;;;5023122;28;20554;-71
2022/07/17 08:52:14;;;;;;;6.80;5.90;;;24.70;23.80;;;;;;5019332;28;20534;-71
2022/07/17 08:54:40;;;;;;;9.30;5.57;;;24.70;23.60;;;;;;5025205;28;20436;-71
2022/07/17 08:57:07;;;;;;;7.87;5.80;;;24.40;23.60;;;;;;5019436;28;20468;-71
2022/07/17 08:59:32;;;;;;;6.33;5.10;;;24.90;24.70;;;;;;5012805;28;20447;-71
2022/07/17 09:01:59;;;;;;;6.77;5.37;;;25.20;23.80;;;;;;5018208;28;20451;-72
2022/07/17 09:04:25;;;;;;;8.57;5.23;;;25.60;22.20;;;;;;5016864;28;20618;-72
2022/07/17 09:07:04;;;;;;;9.17;5.30;;;25.90;21.70;;;;;;5014279;28;20471;-72
2022/07/17 09:09:30;;;;;;;8.07;5.97;;;25.90;22.40;;;;;;5015369;28;20466;-71
2022/07/17 09:11:58;;;;;;;8.67;4.90;;;26.20;22.50;;;;;;5016080;28;20961;-71
2022/07/17 09:14:35;;;;;;;22.33;5.70;;;25.70;21.40;;;;;;5027221;28;20794;-71
2022/07/17 09:17:03;;;;;;;15.20;5.30;;;25.00;21.30;;;;;;5020933;28;20970;-71
2022/07/17 09:19:42;;;;;;;10.57;4.93;;;25.30;22.90;;;;;;5021065;28;21122;-72
2022/07/17 09:22:17;;;;;;;10.53;4.77;;;26.00;21.60;;;;;;5024239;28;20436;-71
2022/07/17 09:24:52;;;;;;;8.60;4.83;;;26.20;20.10;;;;;;5019442;28;20454;-72
2022/07/17 09:27:23;;;;;;;7.60;4.87;;;26.60;18.90;;;;;;5016216;28;20866;-71
2022/07/17 09:30:10;;;;;;;6.70;4.77;;;26.50;18.70;;;;;;5019999;28;20427;-72
2022/07/17 09:32:39;;;;;;;13.03;5.57;;;26.50;18.80;;;;;;5025258;28;20435;-71
2022/07/17 09:35:07;;;;;;;7.07;4.80;;;26.90;18.10;;;;;;5046850;22;21164;-76
2022/07/17 09:37:34;;;;;;;10.27;4.97;;;26.90;18.10;;;;;;5030207;28;20469;-76
2022/07/17 09:40:01;;;;;;;9.10;4.40;;;26.80;17.00;;;;;;5030713;28;20434;-76
2022/07/17 09:42:33;;;;;;;6.13;4.50;;;26.60;19.00;;;;;;5031439;28;20766;-76
2022/07/17 09:45:08;;;;;;;10.67;4.73;;;27.00;19.00;;;;;;5013364;28;20496;-76
2022/07/17 09:47:36;;;;;;;8.33;4.50;;;27.30;18.30;;;;;;5012086;28;20423;-76
2022/07/17 09:50:03;;;;;;;7.70;4.73;;;27.10;17.80;;;;;;5011254;28;20434;-76
2022/07/17 09:52:31;;;;;;;6.33;4.80;;;27.00;17.60;;;;;;5010653;28;20460;-76
2022/07/17 09:54:58;;;;;;;7.00;4.50;;;27.60;17.70;;;;;;5007290;28;20452;-76
2022/07/17 09:57:27;;;;;;;5.63;4.37;;;27.90;17.40;;;;;;5011593;28;20435;-76
2022/07/17 09:59:55;;;;;;;5.70;4.27;;;28.00;16.50;;;;;;5011561;28;20428;-76
2022/07/17 10:02:22;;;;;;;7.70;4.50;;;27.60;17.00;;;;;;5010079;28;20431;-76
2022/07/17 10:04:48;;;;;;;19.10;4.93;;;27.50;16.60;;;;;;5009698;28;20970;-75
2022/07/17 10:07:15;;;;;;;8.00;4.70;;;26.70;17.00;;;;;;5007265;28;20439;-76
2022/07/17 10:09:40;;;;;;;11.60;4.20;;;26.20;18.20;;;;;;5009403;28;20815;-75
2022/07/17 10:12:07;;;;;;;10.97;4.20;;;27.00;17.80;;;;;;5011194;28;20430;-76
2022/07/17 10:14:35;;;;;;;10.40;4.20;;;27.70;16.80;;;;;;5011359;28;20279;-76
2022/07/17 10:17:14;;;;;;;13.60;4.60;;;27.50;16.40;;;;;;5011066;28;20423;-76
2022/07/17 10:19:52;;;;;;;6.47;4.40;;;27.30;17.10;;;;;;5008211;28;20436;-75
2022/07/17 10:22:18;;;;;;;13.27;4.67;;;27.50;17.00;;;;;;5010448;28;20788;-76
2022/07/17 10:24:52;;;;;;;6.57;4.30;;;28.10;17.00;;;;;;5010006;28;20459;-75
2022/07/17 10:27:29;;;;;;;9.47;4.37;;;28.30;16.60;;;;;;5011458;28;20268;-75
2022/07/17 10:30:07;;;;;;;6.17;3.87;;;28.50;16.30;;;;;;5010922;28;20451;-75
2022/07/17 10:32:33;;;;;;;8.67;4.83;;;28.30;15.40;;;;;;5010123;28;20462;-75
2022/07/17 10:35:03;;;;;;;8.70;4.50;;;27.20;17.00;;;;;;5008117;28;20467;-75
2022/07/17 10:37:35;;;;;;;6.33;4.40;;;27.30;17.10;;;;;;5008534;28;20443;-76
2022/07/17 10:40:14;;;;;;;7.23;4.53;;;28.10;17.50;;;;;;5006469;28;20673;-75
2022/07/17 10:43:04;;;;;;;5.40;4.37;;;28.30;16.30;;;;;;5022031;28;20431;-75
2022/07/17 10:45:39;;;;;;;9.20;4.43;;;28.80;15.70;;;;;;5005802;28;20473;-75
2022/07/17 10:48:08;;;;;;;7.57;4.47;;;29.00;14.90;;;;;;5008443;28;20429;-76
2022/07/17 10:50:45;;;;;;;4.47;4.20;;;28.30;15.00;;;;;;5006823;28;20842;-75
2022/07/17 10:53:24;;;;;;;5.83;4.30;;;27.60;15.50;;;;;;5003470;28;20442;-76
2022/07/17 10:56:01;;;;;;;13.10;4.83;;;27.50;17.70;;;;;;5007065;28;21014;-76
2022/07/17 10:58:27;;;;;;;8.60;4.30;;;27.70;16.20;;;;;;5006233;28;20518;-76
2022/07/17 11:01:13;;;;;;;5.50;4.33;;;27.80;17.40;;;;;;5007166;28;20478;-75
2022/07/17 11:03:51;;;;;;;10.00;4.40;;;28.30;14.90;;;;;;5008268;28;20435;-76
2022/07/17 11:06:18;;;;;;;5.83;4.10;;;27.70;16.50;;;;;;5008877;28;20466;-75
2022/07/17 11:08:57;;;;;;;5.27;3.87;;;27.20;16.70;;;;;;5009608;28;20433;-75
2022/07/17 11:11:50;;;;;;;5.00;4.20;;;28.20;16.70;;;;;;5006410;28;20424;-76
2022/07/17 11:14:23;;;;;;;7.13;5.20;;;29.40;13.60;;;;;;5003525;28;20458;-76
2022/07/17 11:16:53;;;;;;;11.63;4.27;;;30.00;13.50;;;;;;5007177;28;20439;-75
2022/07/17 11:19:42;;;;;;;4.53;4.20;;;30.30;13.70;;;;;;5010221;28;20770;-75
2022/07/17 11:22:10;;;;;;;4.77;3.97;;;30.40;12.80;;;;;;5008478;28;20431;-75
2022/07/17 11:24:39;;;;;;;5.00;3.97;;;31.00;12.00;;;;;;5009302;28;20456;-76
2022/07/17 11:27:05;;;;;;;6.33;4.17;;;31.10;12.10;;;;;;5009327;28;20930;-76
2022/07/17 11:29:37;;;;;;;5.20;3.70;;;31.10;12.40;;;;;;5008804;28;21002;-76
2022/07/17 11:32:02;;;;;;;8.63;3.77;;;30.90;11.90;;;;;;5009783;28;20446;-74
2022/07/17 11:34:28;;;;;;;6.63;3.90;;;31.20;12.10;;;;;;5010513;28;21009;-76
2022/07/17 11:36:59;;;;;;;6.60;3.73;;;31.80;11.00;;;;;;5010529;28;20239;-75
2022/07/17 11:39:25;;;;;;;5.20;3.60;;;30.70;11.10;;;;;;5012545;28;20555;-75
2022/07/17 11:41:53;;;;;;;6.03;3.57;;;32.00;10.50;;;;;;5007537;28;20432;-76
2022/07/17 11:44:21;;;;;;;6.23;3.60;;;32.00;9.10;;;;;;5012631;28;20783;-76
2022/07/17 11:46:49;;;;;;;3.97;3.67;;;31.00;10.90;;;;;;5012961;28;20431;-75
2022/07/17 11:49:41;;;;;;;4.10;3.67;;;30.60;9.30;;;;;;5013028;28;20815;-75
2022/07/17 11:52:13;;;;;;;6.90;3.30;;;29.80;10.80;;;;;;5009712;28;20794;-75
2022/07/17 11:54:56;;;;;;;3.53;3.20;;;30.90;9.90;;;;;;5008557;28;20439;-76
2022/07/17 11:57:23;;;;;;;7.10;3.60;;;31.00;9.50;;;;;;5013459;28;20506;-75
2022/07/17 11:59:49;;;;;;;4.97;3.50;;;30.50;12.30;;;;;;5012342;28;20438;-77
2022/07/17 12:02:14;;;;;;;5.20;3.30;;;31.50;12.20;;;;;;5013726;28;20431;-76
2022/07/17 12:04:58;;;;;;;5.70;3.30;;;32.40;8.30;;;;;;5012793;28;20818;-76
2022/07/17 12:07:37;;;;;;;8.20;3.50;;;33.40;8.10;;;;;;5011290;28;20177;-76
2022/07/17 12:10:12;;;;;;;12.97;3.73;;;33.70;7.00;;;;;;5012593;28;20427;-76
2022/07/17 12:12:38;;;;;;;4.70;3.40;;;32.20;8.20;;;;;;5013103;28;20440;-75
2022/07/17 12:15:05;;;;;;;4.70;3.90;;;31.60;7.70;;;;;;5013724;28;20451;-75
2022/07/17 12:17:41;;;;;;;5.57;3.80;;;31.90;9.60;;;;;;5014081;28;20326;-77
2022/07/17 12:20:08;;;;;;;4.77;3.50;;;32.30;8.40;;;;;;5014311;28;20473;-76
2022/07/17 12:22:48;;;;;;;8.87;3.57;;;32.60;7.40;;;;;;5012653;28;20423;-75
2022/07/17 12:25:27;;;;;;;3.63;3.43;;;31.60;9.70;;;;;;5012855;28;20455;-77
2022/07/17 12:27:53;;;;;;;6.60;3.40;;;32.90;7.60;;;;;;5012011;28;20427;-76
2022/07/17 12:30:19;;;;;;;4.83;3.70;;;33.70;7.80;;;;;;5013553;28;20934;-76
2022/07/17 12:32:47;;;;;;;3.90;3.50;;;33.20;8.60;;;;;;5013047;28;20184;-75
2022/07/17 12:35:13;;;;;;;7.00;3.23;;;34.00;6.30;;;;;;5012616;28;20495;-76
2022/07/17 12:37:38;;;;;;;6.60;3.47;;;34.60;5.60;;;;;;5013597;28;20424;-76
2022/07/17 12:40:05;;;;;;;11.80;3.30;;;35.00;5.30;;;;;;5013364;28;20795;-76